createdAt,value
2019-05-22T00:05:14.973Z,26.20
2019-05-22T00:08:06.504Z,32.05
2019-05-22T00:13:40.692Z,30.60
2019-05-22T00:16:11.746Z,32.83
2019-05-22T00:18:46.586Z,30.55
2019-05-22T00:21:17.232Z,32.30
2019-05-22T00:23:47.688Z,32.25
2019-05-22T00:26:25.567Z,30.40
2019-05-22T00:28:55.460Z,35.80
2019-05-22T00:31:28.778Z,33.30
2019-05-22T00:34:03.842Z,32.93
2019-05-22T00:36:34.722Z,33.23
2019-05-22T00:39:06.582Z,32.15
2019-05-22T00:41:36.187Z,32.65
2019-05-22T00:44:06.463Z,29.00
2019-05-22T00:46:37.671Z,27.13
2019-05-22T00:52:24.363Z,27.02
2019-05-22T00:57:43.535Z,28.02
2019-05-22T01:00:19.485Z,28.25
2019-05-22T01:02:51.117Z,24.85
2019-05-22T01:05:23.850Z,25.35
2019-05-22T01:11:09.159Z,25.80
2019-05-22T01:13:40.285Z,20.90
2019-05-22T01:16:18.382Z,17.73
2019-05-22T01:18:48.258Z,17.98
2019-05-22T01:21:22.630Z,16.23
2019-05-22T01:23:57.246Z,17.27
2019-05-22T01:26:27.892Z,15.03
2019-05-22T01:28:59.743Z,16.02
2019-05-22T01:31:38.157Z,17.48
2019-05-22T01:34:13.364Z,15.58
2019-05-22T01:37:05.347Z,13.50
2019-05-22T01:39:42.150Z,14.68
2019-05-22T01:42:15.787Z,11.45
2019-05-22T01:45:00.858Z,13.53
2019-05-22T01:47:30.403Z,13.05
2019-05-22T01:50:01.059Z,13.62
2019-05-22T01:55:21.333Z,10.75
2019-05-22T01:57:57.854Z,13.75
2019-05-22T02:00:28.653Z,12.80
2019-05-22T02:02:58.443Z,12.18
2019-05-22T02:05:52.069Z,11.25
2019-05-22T02:08:22.816Z,11.10
2019-05-22T02:10:53.162Z,11.68
2019-05-22T02:13:41.846Z,10.55
2019-05-22T02:16:15.017Z,9.58
2019-05-22T02:18:49.139Z,10.38
2019-05-22T02:21:44.076Z,9.60
2019-05-22T02:24:15.629Z,8.75
2019-05-22T02:26:46.110Z,8.95
2019-05-22T02:32:20.226Z,10.15
2019-05-22T02:34:52.311Z,9.38
2019-05-22T02:37:25.593Z,7.55
2019-05-22T02:39:59.991Z,8.75
2019-05-22T02:45:13.915Z,8.90
2019-05-22T02:47:49.751Z,9.28
2019-05-22T02:50:22.339Z,8.78
2019-05-22T02:53:12.902Z,10.32
2019-05-22T02:55:54.164Z,9.65
2019-05-22T02:58:25.701Z,14.18
2019-05-22T03:01:02.331Z,13.60
2019-05-22T03:03:34.318Z,11.63
2019-05-22T03:06:07.429Z,12.00
2019-05-22T03:09:01.681Z,12.20
2019-05-22T03:11:35.283Z,10.13
2019-05-22T03:14:08.161Z,9.23
2019-05-22T03:16:49.938Z,10.15
2019-05-22T03:25:25.514Z,13.32
2019-05-22T03:27:54.547Z,17.55
2019-05-22T03:30:27.182Z,14.68
2019-05-22T03:32:57.164Z,19.60
2019-05-22T03:35:28.198Z,18.27
2019-05-22T03:37:59.253Z,17.05
2019-05-22T03:40:29.988Z,17.25
2019-05-22T03:43:20.235Z,22.35
2019-05-22T03:45:50.834Z,19.52
2019-05-22T03:48:21.263Z,20.02
2019-05-22T03:50:50.037Z,23.57
2019-05-22T03:53:20.135Z,26.65
2019-05-22T03:55:49.978Z,23.02
2019-05-22T03:58:19.695Z,24.90
2019-05-22T04:00:53.263Z,26.40
2019-05-22T04:03:23.265Z,28.23
2019-05-22T04:05:52.915Z,27.27
2019-05-22T04:08:24.468Z,29.52
2019-05-22T04:11:17.816Z,33.08
2019-05-22T04:13:47.640Z,28.77
2019-05-22T04:16:24.137Z,31.50
2019-05-22T04:18:53.522Z,28.73
2019-05-22T04:21:22.202Z,35.25
2019-05-22T04:23:51.392Z,30.60
2019-05-22T04:26:20.810Z,30.60
2019-05-22T04:28:52.536Z,27.85
2019-05-22T04:31:27.032Z,30.48
2019-05-22T04:33:56.616Z,29.42
2019-05-22T04:36:25.588Z,29.45
2019-05-22T04:38:54.572Z,29.87
2019-05-22T04:41:24.360Z,33.95
2019-05-22T04:43:53.656Z,33.23
2019-05-22T04:46:23.115Z,32.40
2019-05-22T04:48:51.801Z,32.17
2019-05-22T04:51:26.650Z,31.15
2019-05-22T04:53:56.274Z,38.70
2019-05-22T04:56:26.732Z,35.90
2019-05-22T04:58:56.903Z,33.25
2019-05-22T05:01:26.452Z,32.88
2019-05-22T05:03:55.110Z,38.20
2019-05-22T05:06:27.203Z,34.27
2019-05-22T05:08:56.727Z,32.88
2019-05-22T05:11:25.557Z,43.02
2019-05-22T05:13:54.943Z,30.92
2019-05-22T05:16:23.563Z,29.02
2019-05-22T05:18:52.483Z,31.05
2019-05-22T05:21:21.468Z,29.70
2019-05-22T05:23:50.150Z,27.67
2019-05-22T05:26:19.242Z,27.67
2019-05-22T05:28:48.246Z,25.75
2019-05-22T05:31:37.860Z,27.37
2019-05-22T05:34:21.288Z,30.55
2019-05-22T05:36:50.472Z,25.57
2019-05-22T05:39:44.063Z,25.37
2019-05-22T05:42:12.651Z,26.30
2019-05-22T05:44:41.366Z,25.00
2019-05-22T05:47:10.156Z,21.55
2019-05-22T05:49:39.360Z,25.88
2019-05-22T05:52:10.087Z,24.12
2019-05-22T05:54:39.416Z,24.05
2019-05-22T05:57:36.358Z,22.42
2019-05-22T06:00:09.201Z,23.45
2019-05-22T06:02:38.323Z,26.50
2019-05-22T06:05:08.205Z,24.72
2019-05-22T06:07:37.586Z,23.80
2019-05-22T06:10:45.300Z,24.05
2019-05-22T06:13:14.569Z,23.50
2019-05-22T06:16:04.321Z,26.40
2019-05-22T06:18:37.494Z,31.30
2019-05-22T06:21:07.428Z,26.10
2019-05-22T06:23:39.639Z,26.02
2019-05-22T06:26:09.916Z,21.95
2019-05-22T06:28:59.417Z,26.35
2019-05-22T06:31:37.011Z,28.38
2019-05-22T06:34:05.783Z,20.50
2019-05-22T06:36:36.632Z,23.65
2019-05-22T06:39:08.776Z,15.65
2019-05-22T06:41:38.733Z,16.10
2019-05-22T06:44:27.053Z,14.63
2019-05-22T06:46:55.932Z,18.87
2019-05-22T06:49:32.816Z,15.65
2019-05-22T06:52:02.195Z,13.65
2019-05-22T06:54:51.658Z,13.95
2019-05-22T06:57:21.386Z,11.63
2019-05-22T07:00:11.337Z,10.15
2019-05-22T07:02:23.356Z,11.70
2019-05-22T07:04:52.763Z,8.63
2019-05-22T07:07:22.084Z,10.13
2019-05-22T07:09:50.628Z,13.85
2019-05-22T07:12:20.585Z,10.28
2019-05-22T07:15:07.668Z,10.40
2019-05-22T07:17:39.123Z,10.00
2019-05-22T07:20:28.898Z,9.58
2019-05-22T07:22:58.833Z,11.48
2019-05-22T07:25:49.291Z,10.93
2019-05-22T07:28:19.257Z,10.93
2019-05-22T07:30:48.871Z,10.15
2019-05-22T07:33:38.252Z,10.50
2019-05-22T07:36:10.854Z,10.30
2019-05-22T07:38:38.237Z,10.10
2019-05-22T07:41:07.722Z,11.93
2019-05-22T07:43:40.947Z,12.65
2019-05-22T07:46:06.643Z,11.90
2019-05-22T07:48:35.739Z,9.03
2019-05-22T07:51:05.888Z,10.08
2019-05-22T07:53:34.572Z,9.85
2019-05-22T07:56:06.082Z,8.48
2019-05-22T07:58:43.581Z,10.25
2019-05-22T08:01:13.853Z,7.30
2019-05-22T08:03:44.843Z,8.30
2019-05-22T08:06:14.712Z,8.10
2019-05-22T08:08:44.601Z,7.58
2019-05-22T08:11:14.536Z,7.65
2019-05-22T08:13:44.367Z,8.43
2019-05-22T08:16:13.289Z,8.03
2019-05-22T08:18:42.934Z,8.70
2019-05-22T08:21:12.657Z,9.33
2019-05-22T08:23:42.081Z,8.93
2019-05-22T08:26:13.496Z,8.38
2019-05-22T08:28:42.211Z,10.53
2019-05-22T08:31:12.889Z,8.50
2019-05-22T08:33:41.611Z,10.60
2019-05-22T08:36:10.966Z,9.68
2019-05-22T08:38:41.249Z,7.67
2019-05-22T08:41:11.955Z,8.55
2019-05-22T08:44:11.417Z,9.45
2019-05-22T08:46:16.758Z,10.25
2019-05-22T08:48:48.720Z,11.20
2019-05-22T08:51:16.225Z,8.13
2019-05-22T08:53:48.073Z,8.98
2019-05-22T08:56:16.551Z,9.48
2019-05-22T08:58:46.466Z,8.45
2019-05-22T09:01:15.726Z,11.48
2019-05-22T09:03:45.652Z,9.00
2019-05-22T09:06:15.313Z,9.90
2019-05-22T09:08:44.018Z,9.10
2019-05-22T09:11:13.032Z,13.15
2019-05-22T09:13:41.839Z,11.00
2019-05-22T09:16:12.398Z,14.65
2019-05-22T09:18:41.075Z,12.18
2019-05-22T09:21:10.172Z,11.63
2019-05-22T09:23:38.991Z,10.85
2019-05-22T09:26:08.116Z,9.58
2019-05-22T09:28:38.250Z,9.15
2019-05-22T09:31:07.129Z,11.70
2019-05-22T09:33:37.703Z,9.33
2019-05-22T09:36:08.243Z,9.18
2019-05-22T09:38:37.893Z,8.98
2019-05-22T09:41:07.766Z,7.28
2019-05-22T09:43:36.385Z,10.23
2019-05-22T09:46:05.992Z,6.92
2019-05-22T09:48:35.441Z,7.92
2019-05-22T09:51:04.118Z,8.55
2019-05-22T09:53:33.279Z,9.78
2019-05-22T09:56:02.058Z,9.00
2019-05-22T09:58:31.045Z,12.35
2019-05-22T10:00:59.792Z,12.55
2019-05-22T10:03:28.364Z,8.53
2019-05-22T10:05:57.195Z,9.03
2019-05-22T10:08:26.080Z,12.78
2019-05-22T10:10:55.098Z,10.82
2019-05-22T10:13:28.437Z,9.98
2019-05-22T10:15:55.453Z,9.98
2019-05-22T10:18:24.739Z,10.70
2019-05-22T10:20:54.429Z,9.90
2019-05-22T10:23:24.060Z,10.93
2019-05-22T10:25:52.598Z,14.10
2019-05-22T10:28:21.809Z,11.12
2019-05-22T10:30:51.259Z,8.95
2019-05-22T10:33:20.317Z,9.28
2019-05-22T10:35:49.219Z,8.75
2019-05-22T10:38:17.766Z,11.10
2019-05-22T10:40:46.471Z,10.25
2019-05-22T10:43:15.033Z,12.20
2019-05-22T10:45:43.817Z,11.30
2019-05-22T10:48:12.564Z,13.53
2019-05-22T10:50:41.201Z,11.88
2019-05-22T10:53:10.443Z,12.55
2019-05-22T10:55:39.523Z,12.78
2019-05-22T10:58:09.000Z,12.10
2019-05-22T11:00:38.061Z,15.10
2019-05-22T11:03:27.731Z,11.95
2019-05-22T11:06:06.989Z,10.53
2019-05-22T11:08:31.779Z,13.05
2019-05-22T11:10:58.201Z,10.93
2019-05-22T11:13:27.036Z,13.03
2019-05-22T11:15:58.414Z,9.85
2019-05-22T11:18:46.406Z,9.20
2019-05-22T11:23:51.805Z,10.43
2019-05-22T11:26:13.472Z,9.15
2019-05-22T11:28:43.323Z,11.88
2019-05-22T11:31:11.964Z,9.78
2019-05-22T11:33:40.807Z,11.85
2019-05-22T11:36:11.333Z,12.65
2019-05-22T11:38:39.944Z,13.35
2019-05-22T11:41:08.899Z,9.60
2019-05-22T11:43:38.183Z,11.20
2019-05-22T11:46:07.015Z,13.72
2019-05-22T11:48:35.709Z,12.33
2019-05-22T11:51:04.422Z,10.40
2019-05-22T11:53:33.116Z,12.45
2019-05-22T11:56:02.169Z,9.30
2019-05-22T11:58:30.815Z,9.45
2019-05-22T12:01:00.020Z,10.55
2019-05-22T12:03:31.128Z,9.68
2019-05-22T12:05:59.673Z,11.28
2019-05-22T12:08:29.396Z,10.98
2019-05-22T12:10:58.631Z,10.20
2019-05-22T12:13:27.612Z,10.38
2019-05-22T12:15:58.437Z,11.83
2019-05-22T12:18:28.385Z,9.78
2019-05-22T12:20:57.381Z,11.75
2019-05-22T12:23:26.998Z,9.48
2019-05-22T12:25:55.912Z,10.43
2019-05-22T12:28:25.043Z,12.55
2019-05-22T12:30:53.807Z,7.20
2019-05-22T12:33:22.953Z,8.85
2019-05-22T12:36:12.352Z,6.87
2019-05-22T12:38:41.928Z,6.25
2019-05-22T12:41:13.193Z,7.58
2019-05-22T12:43:44.807Z,6.42
2019-05-22T12:46:13.886Z,6.87
2019-05-22T12:48:43.419Z,6.20
2019-05-22T12:51:12.940Z,5.55
2019-05-22T12:53:41.926Z,9.73
2019-05-22T12:56:10.626Z,4.70
2019-05-22T12:58:39.710Z,5.28
2019-05-22T13:01:08.467Z,7.60
2019-05-22T13:03:39.003Z,10.38
2019-05-22T13:06:09.210Z,6.35
2019-05-22T13:08:38.921Z,6.90
2019-05-22T13:11:07.856Z,6.83
2019-05-22T13:13:37.080Z,6.40
2019-05-22T13:16:06.551Z,5.40
2019-05-22T13:18:37.541Z,6.85
2019-05-22T13:21:08.168Z,6.65
2019-05-22T13:23:41.384Z,5.53
2019-05-22T13:26:10.758Z,4.92
2019-05-22T13:28:42.292Z,8.25
2019-05-22T13:31:11.653Z,5.10
2019-05-22T13:34:01.051Z,4.33
2019-05-22T13:36:30.389Z,8.53
2019-05-22T13:38:59.748Z,6.33
2019-05-22T13:41:28.856Z,5.67
2019-05-22T13:43:57.865Z,7.92
2019-05-22T13:46:27.022Z,7.65
2019-05-22T13:48:55.636Z,7.92
2019-05-22T13:51:24.317Z,9.85
2019-05-22T13:53:53.522Z,6.85
2019-05-22T13:56:25.349Z,5.87
2019-05-22T13:58:54.587Z,5.30
2019-05-22T14:01:25.138Z,9.93
2019-05-22T14:03:55.202Z,4.95
2019-05-22T14:06:24.136Z,7.25
2019-05-22T14:08:52.799Z,6.50
2019-05-22T14:11:21.437Z,7.58
2019-05-22T14:13:51.395Z,6.90
2019-05-22T14:16:20.669Z,8.15
2019-05-22T14:18:49.495Z,6.40
2019-05-22T14:21:18.099Z,5.87
2019-05-22T14:23:46.789Z,7.15
2019-05-22T14:26:16.103Z,6.83
2019-05-22T14:28:45.229Z,7.85
2019-05-22T14:31:13.892Z,7.45
2019-05-22T14:33:43.001Z,7.37
2019-05-22T14:36:12.271Z,6.08
2019-05-22T14:38:41.683Z,7.67
2019-05-22T14:41:31.094Z,6.70
2019-05-22T14:43:59.727Z,9.73
2019-05-22T14:46:28.345Z,5.78
2019-05-22T14:48:56.889Z,8.65
2019-05-22T14:51:26.459Z,7.25
2019-05-22T14:54:15.882Z,9.50
2019-05-22T14:56:45.784Z,6.17
2019-05-22T14:59:14.599Z,6.08
2019-05-22T15:01:43.531Z,7.40
2019-05-22T15:04:12.931Z,5.78
2019-05-22T15:06:41.581Z,7.03
2019-05-22T15:09:10.656Z,6.80
2019-05-22T15:11:39.934Z,7.70
2019-05-22T15:14:08.689Z,5.90
2019-05-22T15:16:37.646Z,5.65
2019-05-22T15:19:06.263Z,9.95
2019-05-22T15:21:34.994Z,8.88
2019-05-22T15:24:04.373Z,9.13
2019-05-22T15:26:33.780Z,6.58
2019-05-22T15:29:02.586Z,5.60
2019-05-22T15:31:32.126Z,6.00
2019-05-22T15:34:03.255Z,7.03
2019-05-22T15:36:32.726Z,6.05
2019-05-22T15:39:02.151Z,4.95
2019-05-22T15:41:31.592Z,6.28
2019-05-22T15:44:00.967Z,5.78
2019-05-22T15:46:32.787Z,6.45
2019-05-22T15:49:04.890Z,6.28
2019-05-22T15:51:35.426Z,5.80
2019-05-22T15:54:06.288Z,10.43
2019-05-22T15:56:37.255Z,5.35
2019-05-22T15:59:12.762Z,4.97
2019-05-22T16:01:42.883Z,4.80
2019-05-22T16:04:32.499Z,5.28
2019-05-22T16:07:04.599Z,3.98
2019-05-22T16:09:35.857Z,6.53
2019-05-22T16:12:07.403Z,4.42
2019-05-22T16:14:37.471Z,7.78
2019-05-22T16:17:07.223Z,4.35
2019-05-22T16:19:37.018Z,4.58
2019-05-22T16:22:13.404Z,4.80
2019-05-22T16:24:42.594Z,5.35
2019-05-22T16:27:12.786Z,3.75
2019-05-22T16:29:43.650Z,4.75
2019-05-22T16:32:14.508Z,3.80
2019-05-22T16:35:03.864Z,4.40
2019-05-22T16:37:33.817Z,3.80
2019-05-22T16:40:02.631Z,4.58
2019-05-22T16:42:33.092Z,6.08
2019-05-22T16:45:02.594Z,6.72
2019-05-22T16:47:33.469Z,3.60
2019-05-22T16:50:03.184Z,5.10
2019-05-22T16:52:32.562Z,3.60
2019-05-22T16:55:03.929Z,5.78
2019-05-22T16:57:33.600Z,6.45
2019-05-22T17:00:02.356Z,4.55
2019-05-22T17:02:33.499Z,11.18
2019-05-22T17:05:03.047Z,4.90
2019-05-22T17:07:33.059Z,7.33
2019-05-22T17:10:04.930Z,6.25
2019-05-22T17:12:36.307Z,2.90
2019-05-22T17:15:07.935Z,5.25
2019-05-22T17:17:36.605Z,5.08
2019-05-22T17:20:27.638Z,4.72
2019-05-22T17:22:58.850Z,7.47
2019-05-22T17:25:29.599Z,4.45
2019-05-22T17:27:58.308Z,6.75
2019-05-22T17:30:28.583Z,4.80
2019-05-22T17:32:58.356Z,5.42
2019-05-22T17:35:28.259Z,5.58
2019-05-22T17:38:17.670Z,5.53
2019-05-22T17:40:46.899Z,6.65
2019-05-22T17:43:18.138Z,4.55
2019-05-22T17:45:48.311Z,5.60
2019-05-22T17:48:19.031Z,4.90
2019-05-22T17:50:47.997Z,5.12
2019-05-22T17:53:17.866Z,4.65
2019-05-22T17:55:48.239Z,5.47
2019-05-22T17:58:17.519Z,4.15
2019-05-22T18:00:48.378Z,5.00
2019-05-22T18:03:17.350Z,5.67
2019-05-22T18:05:46.031Z,6.62
2019-05-22T18:08:15.658Z,5.95
2019-05-22T18:11:06.051Z,5.15
2019-05-22T18:13:56.066Z,4.47
2019-05-22T18:16:26.150Z,7.83
2019-05-22T18:18:56.820Z,4.85
2019-05-22T18:21:25.900Z,3.15
2019-05-22T18:24:53.284Z,4.15
2019-05-22T18:27:25.127Z,3.77
2019-05-22T18:29:53.463Z,4.62
2019-05-22T18:32:22.090Z,4.80
2019-05-22T18:34:50.988Z,3.00
2019-05-22T18:37:19.695Z,3.95
2019-05-22T18:39:48.327Z,5.58
2019-05-22T18:42:17.668Z,4.97
2019-05-22T18:44:46.368Z,7.10
2019-05-22T18:47:15.056Z,5.15
2019-05-22T18:49:43.866Z,7.80
2019-05-22T18:52:12.667Z,5.08
2019-05-22T18:54:41.653Z,7.53
2019-05-22T18:57:10.219Z,6.08
2019-05-22T18:59:38.775Z,5.25
2019-05-22T19:02:08.972Z,6.62
2019-05-22T19:04:37.897Z,6.53
2019-05-22T19:07:07.367Z,8.00
2019-05-22T19:12:12.524Z,5.08
2019-05-22T19:14:41.334Z,5.85
2019-05-22T19:17:10.123Z,5.50
2019-05-22T19:19:38.892Z,4.75
2019-05-22T19:22:08.066Z,3.10
2019-05-22T19:24:37.291Z,4.60
2019-05-22T19:27:06.223Z,3.65
2019-05-22T19:29:37.766Z,5.50
2019-05-22T19:32:06.746Z,3.90
2019-05-22T19:34:35.677Z,4.55
2019-05-22T19:37:04.335Z,6.15
2019-05-22T19:39:34.624Z,5.78
2019-05-22T19:42:05.739Z,4.58
2019-05-22T19:44:35.361Z,5.87
2019-05-22T19:47:05.952Z,5.35
2019-05-22T19:49:35.536Z,3.90
2019-05-22T19:52:06.631Z,5.20
2019-05-22T19:54:37.102Z,5.85
2019-05-22T19:57:06.789Z,4.08
2019-05-22T19:59:36.405Z,5.50
2019-05-22T20:02:06.220Z,5.50
2019-05-22T20:04:36.203Z,5.37
2019-05-22T20:07:07.553Z,4.17
2019-05-22T20:09:36.767Z,5.85
2019-05-22T20:12:07.344Z,6.05
2019-05-22T20:14:38.642Z,5.45
2019-05-22T20:17:09.400Z,5.78
2019-05-22T20:19:38.830Z,8.65
2019-05-22T20:22:09.432Z,5.75
2019-05-22T20:24:38.494Z,5.97
2019-05-22T20:27:09.881Z,5.45
2019-05-22T20:29:38.370Z,5.20
2019-05-22T20:32:28.564Z,3.83
2019-05-22T20:35:19.111Z,4.22
2019-05-22T20:37:47.907Z,6.45
2019-05-22T20:40:19.463Z,5.83
2019-05-22T20:43:10.817Z,7.35
2019-05-22T20:45:42.230Z,12.75
2019-05-22T20:53:52.986Z,6.53
2019-05-22T20:56:11.323Z,6.78
2019-05-22T20:58:40.816Z,6.90
2019-05-22T21:01:11.039Z,7.75
2019-05-22T21:03:39.815Z,6.25
2019-05-22T21:06:13.340Z,9.25
2019-05-22T21:08:43.996Z,7.05
2019-05-22T21:11:15.215Z,6.20
2019-05-22T21:14:06.207Z,6.47
2019-05-22T21:16:36.264Z,5.87
2019-05-22T21:19:06.880Z,5.37
2019-05-22T21:21:35.635Z,6.37
2019-05-22T21:24:11.559Z,5.83
2019-05-22T21:26:35.671Z,5.70
2019-05-22T21:29:04.310Z,6.60
2019-05-22T21:31:33.345Z,4.37
2019-05-22T21:34:02.652Z,5.90
2019-05-22T21:36:32.263Z,4.28
2019-05-22T21:39:01.451Z,5.25
2019-05-22T21:41:30.549Z,6.25
2019-05-22T21:43:59.481Z,8.63
2019-05-22T21:46:28.271Z,6.65
2019-05-22T21:48:57.821Z,7.03
2019-05-22T21:51:26.914Z,7.87
2019-05-22T21:53:56.023Z,4.85
2019-05-22T21:56:25.526Z,5.70
2019-05-22T21:58:55.173Z,6.70
2019-05-22T22:01:25.921Z,5.90
2019-05-22T22:04:00.304Z,5.33
2019-05-22T22:06:28.975Z,4.92
2019-05-22T22:08:58.183Z,7.37
2019-05-22T22:11:29.166Z,4.80
2019-05-22T22:13:57.942Z,5.50
2019-05-22T22:16:26.842Z,9.78
2019-05-22T22:18:56.099Z,8.95
2019-05-22T22:21:25.844Z,7.20
2019-05-22T22:23:55.502Z,6.33
2019-05-22T22:26:26.536Z,6.08
2019-05-22T22:28:56.022Z,9.60
2019-05-22T22:31:26.375Z,6.62
2019-05-22T22:33:58.062Z,7.15
2019-05-22T22:36:27.664Z,5.55
2019-05-22T22:38:56.903Z,5.03
2019-05-22T22:41:26.587Z,6.80
2019-05-22T22:43:58.911Z,6.75
2019-05-22T22:49:28.434Z,6.47
2019-05-22T22:51:57.440Z,7.65
2019-05-22T22:54:26.715Z,7.67
2019-05-22T22:56:55.359Z,6.90
2019-05-22T22:59:24.360Z,6.50
2019-05-22T23:01:56.180Z,9.70
2019-05-22T23:04:26.931Z,7.03
2019-05-22T23:06:58.738Z,6.78
2019-05-22T23:09:27.570Z,9.18
2019-05-22T23:11:57.778Z,5.83
2019-05-22T23:14:27.607Z,6.97
2019-05-22T23:16:56.299Z,6.40
2019-05-22T23:19:34.574Z,4.95
2019-05-22T23:22:03.346Z,9.80
2019-05-22T23:24:32.898Z,6.35
2019-05-22T23:27:01.566Z,5.60
2019-05-22T23:29:31.155Z,7.10
2019-05-22T23:32:00.727Z,6.80
2019-05-22T23:34:30.905Z,6.85
2019-05-22T23:37:00.744Z,5.55
2019-05-22T23:39:32.554Z,6.00
2019-05-22T23:42:04.941Z,7.80
2019-05-22T23:44:35.883Z,9.33
2019-05-22T23:47:05.579Z,6.90
2019-05-22T23:49:35.856Z,7.35
2019-05-22T23:52:05.194Z,7.53
2019-05-22T23:54:34.067Z,6.12
2019-05-22T23:57:04.778Z,6.22
2019-05-22T23:59:33.847Z,5.78
